createdAt,value
2019-05-18T00:00:29.829Z,28.60
2019-05-18T00:03:17.176Z,28.70
2019-05-18T00:06:10.680Z,28.90
2019-05-18T00:08:31.546Z,29.10
2019-05-18T00:11:02.038Z,29.30
2019-05-18T00:13:37.618Z,29.50
2019-05-18T00:16:08.662Z,29.70
2019-05-18T00:18:48.224Z,29.90
2019-05-18T00:23:07.805Z,30.10
2019-05-18T00:27:15.694Z,30.50
2019-05-18T00:29:31.986Z,30.70
2019-05-18T00:32:02.631Z,30.90
2019-05-18T00:34:33.474Z,31.10
2019-05-18T00:37:05.967Z,31.20
2019-05-18T00:39:39.144Z,31.30
2019-05-18T00:42:09.932Z,31.40
2019-05-18T00:44:46.095Z,31.50
2019-05-18T00:47:17.183Z,31.70
2019-05-18T00:49:48.017Z,31.90
2019-05-18T00:52:18.854Z,32.10
2019-05-18T00:54:49.903Z,32.20
2019-05-18T00:57:20.828Z,32.40
2019-05-18T00:59:51.808Z,32.60
2019-05-18T01:02:27.070Z,32.70
2019-05-18T01:04:57.674Z,32.80
2019-05-18T01:07:28.684Z,32.80
2019-05-18T01:09:59.522Z,33.00
2019-05-18T01:12:30.457Z,33.10
2019-05-18T01:15:01.409Z,33.30
2019-05-18T01:17:32.455Z,33.40
2019-05-18T01:20:06.305Z,33.50
2019-05-18T01:22:42.781Z,33.70
2019-05-18T01:25:13.667Z,33.70
2019-05-18T01:27:43.288Z,33.70
2019-05-18T01:30:14.455Z,33.80
2019-05-18T01:32:45.453Z,33.80
2019-05-18T01:35:16.384Z,33.90
2019-05-18T01:37:48.435Z,33.90
2019-05-18T01:40:22.613Z,34.00
2019-05-18T01:42:55.589Z,34.00
2019-05-18T01:45:25.946Z,34.10
2019-05-18T01:48:12.205Z,34.10
2019-05-18T01:50:29.195Z,34.20
2019-05-18T01:53:00.103Z,34.30
2019-05-18T01:55:31.389Z,34.30
2019-05-18T01:58:03.506Z,34.40
2019-05-18T02:00:34.102Z,34.50
2019-05-18T02:03:05.358Z,34.50
2019-05-18T02:05:36.461Z,34.60
2019-05-18T02:08:07.750Z,34.60
2019-05-18T02:10:38.495Z,34.60
2019-05-18T02:13:11.088Z,34.70
2019-05-18T02:15:42.142Z,34.60
2019-05-18T02:18:12.726Z,34.70
2019-05-18T02:20:43.672Z,34.70
2019-05-18T02:23:15.621Z,34.70
2019-05-18T02:25:45.578Z,34.80
2019-05-18T02:28:25.929Z,34.80
2019-05-18T02:30:56.876Z,34.90
2019-05-18T02:33:27.593Z,34.90
2019-05-18T02:35:58.926Z,34.90
2019-05-18T02:38:29.796Z,35.00
2019-05-18T02:41:03.330Z,35.00
2019-05-18T02:43:33.893Z,35.00
2019-05-18T02:46:05.142Z,35.00
2019-05-18T02:48:48.533Z,35.00
2019-05-18T02:51:11.444Z,35.00
2019-05-18T02:53:43.074Z,35.00
2019-05-18T02:56:17.195Z,35.00
2019-05-18T02:58:48.465Z,35.00
2019-05-18T03:01:19.305Z,35.00
2019-05-18T03:03:50.202Z,35.10
2019-05-18T03:06:21.508Z,35.10
2019-05-18T03:08:52.470Z,35.10
2019-05-18T03:11:24.289Z,35.10
2019-05-18T03:13:54.884Z,35.20
2019-05-18T03:16:36.138Z,35.20
2019-05-18T03:19:08.877Z,35.30
2019-05-18T03:21:39.394Z,35.30
2019-05-18T03:24:11.558Z,35.30
2019-05-18T03:26:44.279Z,35.30
2019-05-18T03:29:15.624Z,35.30
2019-05-18T03:31:46.682Z,35.20
2019-05-18T03:34:17.655Z,35.20
2019-05-18T03:36:48.514Z,35.10
2019-05-18T03:39:19.537Z,35.10
2019-05-18T03:41:52.931Z,35.10
2019-05-18T03:44:23.945Z,35.20
2019-05-18T03:46:56.173Z,35.30
2019-05-18T03:49:32.910Z,35.40
2019-05-18T03:52:06.525Z,35.50
2019-05-18T03:54:48.985Z,35.50
2019-05-18T03:57:36.608Z,35.60
2019-05-18T04:00:07.363Z,35.70
2019-05-18T04:02:38.279Z,35.80
2019-05-18T04:05:16.560Z,35.90
2019-05-18T04:07:47.655Z,36.00
2019-05-18T04:10:20.252Z,36.20
2019-05-18T04:13:02.643Z,36.30
2019-05-18T04:15:35.732Z,36.50
2019-05-18T04:18:07.322Z,36.60
2019-05-18T04:20:47.205Z,36.70
2019-05-18T04:23:15.381Z,36.70
2019-05-18T04:25:46.225Z,36.80
2019-05-18T04:28:20.063Z,37.00
2019-05-18T04:30:52.668Z,37.00
2019-05-18T04:33:37.506Z,37.10
2019-05-18T04:36:09.719Z,37.10
2019-05-18T04:38:47.810Z,37.10
2019-05-18T04:41:30.739Z,37.10
2019-05-18T04:44:10.079Z,37.10
2019-05-18T04:46:40.255Z,37.10
2019-05-18T04:49:20.830Z,37.00
2019-05-18T04:51:54.731Z,36.80
2019-05-18T04:54:25.391Z,36.60
2019-05-18T04:56:58.772Z,36.40
2019-05-18T05:02:14.987Z,36.30
2019-05-18T05:04:56.610Z,36.30
2019-05-18T05:07:36.428Z,36.30
2019-05-18T05:10:33.563Z,36.40
2019-05-18T05:15:28.301Z,36.40
2019-05-18T05:18:10.476Z,36.50
2019-05-18T05:20:41.314Z,36.50
2019-05-18T05:23:17.313Z,36.60
2019-05-18T05:25:48.153Z,36.50
2019-05-18T05:28:18.833Z,36.30
2019-05-18T05:30:49.567Z,36.20
2019-05-18T05:33:21.584Z,36.20
2019-05-18T05:36:05.913Z,36.20
2019-05-18T05:38:45.310Z,36.20
2019-05-18T05:41:17.487Z,36.10
2019-05-18T05:43:51.907Z,36.00
2019-05-18T05:46:24.816Z,35.90
2019-05-18T05:48:55.953Z,35.80
2019-05-18T05:51:26.809Z,35.80
2019-05-18T05:53:59.721Z,35.90
2019-05-18T05:56:32.455Z,35.90
2019-05-18T05:59:02.760Z,36.00
2019-05-18T06:01:33.623Z,36.10
2019-05-18T06:04:04.612Z,36.10
2019-05-18T06:06:36.201Z,36.20
2019-05-18T06:09:31.724Z,36.30
2019-05-18T06:11:58.335Z,36.50
2019-05-18T06:14:30.889Z,36.60
2019-05-18T06:17:01.754Z,36.60
2019-05-18T06:19:32.478Z,36.70
2019-05-18T06:22:14.077Z,36.80
2019-05-18T06:24:44.838Z,36.80
2019-05-18T06:27:15.655Z,36.90
2019-05-18T06:29:46.421Z,37.10
2019-05-18T06:32:17.125Z,37.20
2019-05-18T06:34:49.918Z,37.20
2019-05-18T06:37:20.852Z,37.10
2019-05-18T06:39:51.585Z,37.10
2019-05-18T06:42:22.344Z,36.90
2019-05-18T06:44:53.358Z,36.70
2019-05-18T06:47:28.486Z,36.60
2019-05-18T06:49:59.541Z,36.60
2019-05-18T06:52:40.617Z,36.60
2019-05-18T06:55:18.375Z,36.70
2019-05-18T06:57:47.911Z,36.70
2019-05-18T07:00:21.715Z,36.60
2019-05-18T07:02:53.835Z,36.60
2019-05-18T07:05:54.630Z,36.50
2019-05-18T07:09:01.873Z,36.40
2019-05-18T07:11:11.998Z,36.30
2019-05-18T07:13:42.894Z,36.20
2019-05-18T07:16:28.784Z,36.20
2019-05-18T07:18:59.618Z,36.20
2019-05-18T07:21:30.866Z,36.30
2019-05-18T07:24:02.044Z,36.30
2019-05-18T07:26:32.812Z,36.40
2019-05-18T07:29:05.678Z,36.50
2019-05-18T07:31:38.829Z,36.60
2019-05-18T07:34:09.530Z,36.60
2019-05-18T07:36:40.473Z,36.60
2019-05-18T07:39:11.376Z,36.70
2019-05-18T07:41:46.946Z,36.70
2019-05-18T07:44:54.370Z,36.70
2019-05-18T07:46:56.648Z,36.60
2019-05-18T07:49:34.582Z,36.50
2019-05-18T07:52:04.755Z,36.40
2019-05-18T07:54:35.487Z,36.40
2019-05-18T07:57:06.254Z,36.50
2019-05-18T07:59:37.057Z,36.60
2019-05-18T08:02:07.790Z,36.60
2019-05-18T08:04:39.849Z,36.70
2019-05-18T08:07:10.692Z,36.70
2019-05-18T08:09:44.980Z,36.70
2019-05-18T08:12:14.930Z,36.80
2019-05-18T08:14:45.688Z,36.70
2019-05-18T08:17:16.413Z,36.70
2019-05-18T08:23:18.871Z,36.80
2019-05-18T08:25:55.331Z,36.80
2019-05-18T08:28:18.833Z,36.90
2019-05-18T08:30:59.214Z,36.80
2019-05-18T08:33:30.046Z,36.80
2019-05-18T08:36:03.118Z,36.70
2019-05-18T08:38:35.531Z,36.60
2019-05-18T08:41:12.410Z,36.60
2019-05-18T08:43:42.897Z,36.60
2019-05-18T08:46:15.320Z,36.60
2019-05-18T08:48:47.433Z,36.60
2019-05-18T08:51:20.156Z,36.60
2019-05-18T08:54:15.206Z,36.60
2019-05-18T08:56:29.705Z,36.60
2019-05-18T08:59:00.984Z,36.60
2019-05-18T09:01:34.854Z,36.60
2019-05-18T09:04:19.697Z,36.50
2019-05-18T09:09:45.926Z,36.50
2019-05-18T09:12:16.362Z,36.40
2019-05-18T09:14:47.358Z,36.40
2019-05-18T09:17:18.170Z,36.30
2019-05-18T09:20:01.051Z,36.40
2019-05-18T09:22:31.937Z,36.40
2019-05-18T09:25:03.267Z,36.40
2019-05-18T09:27:36.146Z,36.30
2019-05-18T09:30:08.464Z,36.30
2019-05-18T09:32:39.898Z,36.30
2019-05-18T09:35:10.807Z,36.20
2019-05-18T09:37:41.735Z,36.20
2019-05-18T09:40:12.457Z,36.20
2019-05-18T09:42:43.384Z,36.20
2019-05-18T09:45:19.506Z,36.20
2019-05-18T09:47:49.767Z,36.20
2019-05-18T09:50:20.539Z,36.20
2019-05-18T09:52:56.980Z,36.20
2019-05-18T09:55:27.805Z,36.20
2019-05-18T09:57:59.971Z,36.20
2019-05-18T10:00:38.075Z,36.20
2019-05-18T10:03:02.794Z,36.20
2019-05-18T10:05:34.152Z,36.10
2019-05-18T10:08:04.959Z,36.10
2019-05-18T10:10:35.693Z,36.10
2019-05-18T10:13:07.057Z,36.10
2019-05-18T10:15:37.800Z,36.00
2019-05-18T10:18:08.711Z,36.00
2019-05-18T10:20:47.152Z,35.90
2019-05-18T10:23:23.820Z,35.80
2019-05-18T10:25:56.174Z,35.80
2019-05-18T10:28:25.371Z,35.70
2019-05-18T10:30:56.125Z,35.60
2019-05-18T10:33:38.967Z,35.50
2019-05-18T10:36:11.560Z,35.40
2019-05-18T10:38:41.455Z,35.30
2019-05-18T10:41:12.338Z,35.20
2019-05-18T10:43:46.831Z,35.10
2019-05-18T10:46:15.913Z,35.00
2019-05-18T10:48:46.731Z,35.00
2019-05-18T10:51:17.793Z,34.90
2019-05-18T10:53:52.449Z,34.80
2019-05-18T10:56:23.411Z,34.70
2019-05-18T10:58:54.746Z,34.70
2019-05-18T11:01:25.704Z,34.60
2019-05-18T11:03:56.575Z,34.50
2019-05-18T11:06:27.636Z,34.40
2019-05-18T11:08:59.728Z,34.40
2019-05-18T11:11:30.979Z,34.30
2019-05-18T11:14:01.863Z,34.20
2019-05-18T11:16:32.700Z,34.20
2019-05-18T11:19:03.560Z,34.10
2019-05-18T11:21:34.511Z,34.00
2019-05-18T11:24:05.080Z,33.90
2019-05-18T11:26:36.138Z,33.80
2019-05-18T11:29:06.960Z,33.70
2019-05-18T11:31:37.815Z,33.70
2019-05-18T11:34:08.745Z,33.60
2019-05-18T11:36:39.746Z,33.50
2019-05-18T11:39:10.734Z,33.50
2019-05-18T11:41:41.683Z,33.40
2019-05-18T11:44:12.774Z,33.40
2019-05-18T11:46:43.718Z,33.30
2019-05-18T11:49:14.866Z,33.30
2019-05-18T11:51:45.953Z,33.20
2019-05-18T11:54:19.390Z,33.10
2019-05-18T11:56:50.281Z,33.00
2019-05-18T11:59:21.171Z,32.90
2019-05-18T12:01:52.228Z,32.90
2019-05-18T12:04:23.183Z,32.80
2019-05-18T12:06:54.031Z,32.70
2019-05-18T12:09:25.093Z,32.60
2019-05-18T12:11:56.465Z,32.60
2019-05-18T12:14:27.439Z,32.50
2019-05-18T12:16:58.129Z,32.40
2019-05-18T12:19:32.622Z,32.40
2019-05-18T12:22:03.825Z,32.30
2019-05-18T12:24:36.452Z,32.20
2019-05-18T12:27:05.906Z,32.20
2019-05-18T12:29:36.658Z,32.20
2019-05-18T12:32:07.816Z,32.10
2019-05-18T12:34:40.365Z,32.00
2019-05-18T12:37:12.613Z,32.00
2019-05-18T12:39:46.436Z,32.00
2019-05-18T12:42:17.261Z,32.00
2019-05-18T12:44:49.517Z,32.00
2019-05-18T12:47:20.295Z,32.00
2019-05-18T12:49:51.114Z,31.90
2019-05-18T12:52:22.333Z,31.90
2019-05-18T12:54:55.556Z,31.80
2019-05-18T12:57:26.646Z,31.80
2019-05-18T12:59:57.519Z,31.80
2019-05-18T13:02:28.253Z,31.80
2019-05-18T13:04:59.193Z,31.70
2019-05-18T13:07:30.032Z,31.70
2019-05-18T13:10:00.881Z,31.60
2019-05-18T13:12:31.804Z,31.60
2019-05-18T13:15:02.568Z,31.60
2019-05-18T13:17:33.477Z,31.60
2019-05-18T13:20:04.305Z,31.60
2019-05-18T13:22:35.150Z,31.50
2019-05-18T13:25:16.100Z,31.50
2019-05-18T13:27:46.233Z,31.50
2019-05-18T13:30:19.915Z,31.40
2019-05-18T13:32:50.688Z,31.40
2019-05-18T13:35:21.545Z,31.30
2019-05-18T13:37:53.673Z,31.30
2019-05-18T13:40:23.387Z,31.20
2019-05-18T13:42:54.585Z,31.10
2019-05-18T13:45:25.479Z,31.10
2019-05-18T13:47:56.297Z,31.10
2019-05-18T13:50:27.153Z,31.00
2019-05-18T13:52:57.982Z,30.90
2019-05-18T13:55:29.911Z,30.90
2019-05-18T13:58:00.772Z,30.80
2019-05-18T14:00:31.538Z,30.80
2019-05-18T14:03:02.586Z,30.80
2019-05-18T14:05:33.591Z,30.70
2019-05-18T14:08:04.419Z,30.70
2019-05-18T14:10:35.182Z,30.70
2019-05-18T14:13:06.504Z,30.70
2019-05-18T14:15:37.459Z,30.70
2019-05-18T14:18:08.203Z,30.70
2019-05-18T14:20:46.002Z,30.60
2019-05-18T14:23:18.312Z,30.60
2019-05-18T14:25:51.154Z,30.60
2019-05-18T14:28:23.085Z,30.50
2019-05-18T14:30:54.351Z,30.40
2019-05-18T14:33:25.333Z,30.40
2019-05-18T14:36:00.812Z,30.30
2019-05-18T14:38:31.945Z,30.30
2019-05-18T14:41:04.442Z,30.20
2019-05-18T14:43:36.612Z,30.20
2019-05-18T14:46:17.997Z,30.10
2019-05-18T14:48:48.938Z,30.10
2019-05-18T14:51:22.466Z,30.10
2019-05-18T14:53:54.599Z,30.20
2019-05-18T14:56:26.476Z,30.20
2019-05-18T14:58:57.821Z,30.20
2019-05-18T15:01:28.788Z,30.20
2019-05-18T15:04:01.487Z,30.10
2019-05-18T15:06:35.121Z,30.10
2019-05-18T15:09:16.601Z,30.20
2019-05-18T15:11:46.212Z,30.20
2019-05-18T15:14:17.404Z,30.20
2019-05-18T15:16:48.594Z,30.20
2019-05-18T15:19:20.684Z,30.20
2019-05-18T15:21:50.826Z,30.30
2019-05-18T15:24:23.523Z,30.30
2019-05-18T15:26:55.132Z,30.30
2019-05-18T15:29:28.213Z,30.30
2019-05-18T15:32:00.609Z,30.30
2019-05-18T15:34:31.345Z,30.30
2019-05-18T15:37:02.472Z,30.20
2019-05-18T15:39:34.157Z,30.20
2019-05-18T15:42:05.211Z,30.10
2019-05-18T15:44:36.012Z,30.10
2019-05-18T15:47:06.829Z,30.00
2019-05-18T15:49:37.770Z,30.00
2019-05-18T15:52:08.922Z,29.90
2019-05-18T15:54:39.848Z,29.80
2019-05-18T15:57:12.536Z,29.70
2019-05-18T15:59:43.567Z,29.70
2019-05-18T16:02:14.686Z,29.60
2019-05-18T16:04:45.560Z,29.60
2019-05-18T16:07:17.837Z,29.50
2019-05-18T16:09:49.070Z,29.50
2019-05-18T16:12:20.803Z,29.40
2019-05-18T16:14:54.361Z,29.40
2019-05-18T16:17:38.389Z,29.30
2019-05-18T16:19:56.421Z,29.30
2019-05-18T16:22:27.133Z,29.20
2019-05-18T16:24:58.193Z,29.20
2019-05-18T16:27:29.026Z,29.10
2019-05-18T16:29:59.766Z,29.00
2019-05-18T16:32:31.064Z,29.00
2019-05-18T16:35:03.314Z,28.90
2019-05-18T16:37:34.301Z,28.90
2019-05-18T16:40:05.798Z,28.90
2019-05-18T16:42:36.819Z,28.80
2019-05-18T16:45:08.656Z,28.80
2019-05-18T16:47:39.423Z,28.80
2019-05-18T16:50:10.057Z,28.70
2019-05-18T16:52:40.956Z,28.70
2019-05-18T16:55:12.003Z,28.60
2019-05-18T16:57:44.507Z,28.60
2019-05-18T17:00:16.417Z,28.60
2019-05-18T17:02:46.714Z,28.60
2019-05-18T17:05:17.730Z,28.60
2019-05-18T17:07:48.560Z,28.60
2019-05-18T17:10:19.177Z,28.60
2019-05-18T17:12:50.110Z,28.60
2019-05-18T17:15:20.997Z,28.60
2019-05-18T17:17:51.800Z,28.60
2019-05-18T17:20:22.924Z,28.60
2019-05-18T17:22:53.670Z,28.70
2019-05-18T17:25:24.491Z,28.70
2019-05-18T17:27:55.346Z,28.80
2019-05-18T17:30:26.071Z,28.90
2019-05-18T17:32:56.906Z,28.90
2019-05-18T17:35:27.953Z,29.00
2019-05-18T17:37:58.876Z,29.20
2019-05-18T17:40:30.841Z,29.20
2019-05-18T17:43:07.429Z,29.30
2019-05-18T17:45:38.264Z,29.40
2019-05-18T17:48:09.083Z,29.50
2019-05-18T17:50:44.011Z,29.60
2019-05-18T17:53:14.907Z,29.60
2019-05-18T17:55:46.002Z,29.70
2019-05-18T17:58:17.896Z,29.70
2019-05-18T18:00:48.807Z,29.70
2019-05-18T18:03:21.061Z,29.70
2019-05-18T18:05:51.015Z,29.70
2019-05-18T18:08:23.662Z,29.70
2019-05-18T18:10:53.059Z,29.80
2019-05-18T18:13:23.788Z,29.80
2019-05-18T18:15:54.819Z,29.80
2019-05-18T18:18:26.210Z,29.80
2019-05-18T18:20:56.917Z,29.80
2019-05-18T18:23:27.925Z,29.80
2019-05-18T18:25:59.569Z,29.70
2019-05-18T18:28:30.337Z,29.70
2019-05-18T18:31:01.129Z,29.70
2019-05-18T18:33:33.655Z,29.70
2019-05-18T18:36:04.655Z,29.70
2019-05-18T18:38:37.087Z,29.70
2019-05-18T18:41:08.018Z,29.70
2019-05-18T18:43:38.752Z,29.60
2019-05-18T18:46:11.713Z,29.60
2019-05-18T18:48:40.655Z,29.60
2019-05-18T18:51:11.608Z,29.60
2019-05-18T18:53:42.593Z,29.60
2019-05-18T18:56:13.367Z,29.60
2019-05-18T18:58:49.592Z,29.60
2019-05-18T19:01:22.391Z,29.60
2019-05-18T19:03:53.511Z,29.60
2019-05-18T19:06:35.253Z,29.60
2019-05-18T19:09:08.092Z,29.60
2019-05-18T19:11:38.846Z,29.60
2019-05-18T19:14:09.566Z,29.60
2019-05-18T19:16:46.209Z,29.60
2019-05-18T19:19:15.643Z,29.60
2019-05-18T19:21:47.914Z,29.60
2019-05-18T19:24:18.743Z,29.60
2019-05-18T19:26:49.482Z,29.60
2019-05-18T19:29:20.350Z,29.60
2019-05-18T19:31:51.588Z,29.60
2019-05-18T19:34:25.269Z,29.50
2019-05-18T19:36:55.700Z,29.50
2019-05-18T19:39:35.731Z,29.50
2019-05-18T19:42:09.041Z,29.50
2019-05-18T19:44:40.512Z,29.50
2019-05-18T19:47:14.808Z,29.50
2019-05-18T19:49:47.171Z,29.40
2019-05-18T19:52:18.206Z,29.40
2019-05-18T19:54:49.332Z,29.40
2019-05-18T19:57:21.878Z,29.40
2019-05-18T19:59:54.874Z,29.30
2019-05-18T20:02:25.774Z,29.30
2019-05-18T20:05:08.885Z,29.30
2019-05-18T20:07:39.790Z,29.20
2019-05-18T20:10:14.954Z,29.20
2019-05-18T20:12:45.999Z,29.20
2019-05-18T20:15:17.842Z,29.20
2019-05-18T20:17:48.593Z,29.20
2019-05-18T20:20:19.436Z,29.20
2019-05-18T20:22:50.163Z,29.10
2019-05-18T20:25:22.342Z,29.10
2019-05-18T20:27:52.243Z,29.00
2019-05-18T20:30:22.993Z,29.00
2019-05-18T20:32:53.895Z,29.00
2019-05-18T20:35:25.867Z,29.00
2019-05-18T20:37:55.794Z,28.90
2019-05-18T20:40:26.738Z,28.90
2019-05-18T20:42:57.881Z,28.90
2019-05-18T20:45:29.136Z,28.80
2019-05-18T20:48:03.135Z,28.80
2019-05-18T20:50:36.830Z,28.80
2019-05-18T20:53:07.877Z,28.80
2019-05-18T20:55:39.848Z,28.80
2019-05-18T20:58:10.702Z,28.80
2019-05-18T21:00:43.340Z,28.70
2019-05-18T21:03:14.086Z,28.70
2019-05-18T21:05:47.381Z,28.70
2019-05-18T21:08:18.213Z,28.70
2019-05-18T21:10:49.328Z,28.70
2019-05-18T21:13:20.097Z,28.60
2019-05-18T21:15:51.038Z,28.60
2019-05-18T21:18:23.185Z,28.60
2019-05-18T21:20:54.179Z,28.60
2019-05-18T21:23:24.966Z,28.60
2019-05-18T21:25:55.712Z,28.60
2019-05-18T21:28:26.937Z,28.50
2019-05-18T21:30:57.929Z,28.50
2019-05-18T21:33:28.725Z,28.50
2019-05-18T21:35:59.871Z,28.40
2019-05-18T21:38:30.637Z,28.40
2019-05-18T21:41:01.453Z,28.40
2019-05-18T21:43:34.003Z,28.40
2019-05-18T21:46:05.992Z,28.30
2019-05-18T21:48:36.839Z,28.30
2019-05-18T21:51:07.751Z,28.30
2019-05-18T21:53:42.086Z,28.20
2019-05-18T21:56:12.916Z,28.20
2019-05-18T21:58:45.072Z,28.20
2019-05-18T22:01:18.278Z,28.20
2019-05-18T22:03:49.000Z,28.20
2019-05-18T22:06:20.208Z,28.20
2019-05-18T22:08:51.209Z,28.20
2019-05-18T22:11:22.193Z,28.20
2019-05-18T22:13:53.100Z,28.20
2019-05-18T22:16:24.132Z,28.20
2019-05-18T22:18:58.833Z,28.20
2019-05-18T22:21:30.073Z,28.20
2019-05-18T22:24:00.907Z,28.20
2019-05-18T22:26:31.644Z,28.20
2019-05-18T22:29:02.492Z,28.20
2019-05-18T22:31:33.685Z,28.10
2019-05-18T22:34:04.376Z,28.10
2019-05-18T22:36:35.296Z,28.10
2019-05-18T22:39:08.708Z,28.10
2019-05-18T22:41:39.722Z,28.10
2019-05-18T22:44:11.713Z,28.00
2019-05-18T22:46:43.053Z,28.00
2019-05-18T22:49:13.775Z,28.00
2019-05-18T22:51:44.662Z,28.00
2019-05-18T22:54:15.482Z,28.00
2019-05-18T22:56:46.610Z,28.00
2019-05-18T22:59:17.675Z,28.00
2019-05-18T23:01:49.728Z,28.00
2019-05-18T23:04:20.604Z,28.00
2019-05-18T23:06:51.377Z,28.00
2019-05-18T23:09:22.202Z,28.00
2019-05-18T23:11:53.089Z,28.00
2019-05-18T23:14:23.824Z,28.00
2019-05-18T23:16:54.661Z,28.10
2019-05-18T23:19:25.461Z,28.10
2019-05-18T23:21:56.531Z,28.10
2019-05-18T23:24:27.329Z,28.20
2019-05-18T23:26:58.682Z,28.20
2019-05-18T23:29:50.119Z,28.20
2019-05-18T23:32:21.092Z,28.30
2019-05-18T23:34:52.009Z,28.40
2019-05-18T23:37:23.321Z,28.40
2019-05-18T23:39:54.150Z,28.50
2019-05-18T23:42:24.898Z,28.60
2019-05-18T23:44:55.723Z,28.70
2019-05-18T23:47:26.462Z,28.80
2019-05-18T23:49:57.194Z,28.90
2019-05-18T23:52:28.247Z,29.00
2019-05-18T23:54:58.974Z,29.00
2019-05-18T23:57:29.703Z,29.20
